createdAt,value
2023-08-05T00:01:03.934Z,10.07
2023-08-05T00:03:30.759Z,10.20
2023-08-05T00:06:02.334Z,10.27
2023-08-05T00:08:29.073Z,10.35
2023-08-05T00:10:55.818Z,11.45
2023-08-05T00:13:22.718Z,10.50
2023-08-05T00:15:51.639Z,10.77
2023-08-05T00:18:18.391Z,10.38
2023-08-05T00:20:45.166Z,10.90
2023-08-05T00:23:11.953Z,10.73
2023-08-05T00:25:38.702Z,10.27
2023-08-05T00:28:05.629Z,10.15
2023-08-05T00:30:32.362Z,9.95
2023-08-05T00:32:59.011Z,9.30
2023-08-05T00:35:26.396Z,10.70
2023-08-05T00:37:53.432Z,9.63
2023-08-05T00:40:20.213Z,9.65
2023-08-05T00:42:49.895Z,10.30
2023-08-05T00:45:18.967Z,9.98
2023-08-05T00:47:45.719Z,9.88
2023-08-05T00:50:12.487Z,10.55
2023-08-05T00:52:41.474Z,9.50
2023-08-05T00:55:08.399Z,9.48
2023-08-05T00:57:35.377Z,10.25
2023-08-05T01:00:02.471Z,10.10
2023-08-05T01:02:29.408Z,10.02
2023-08-05T01:04:56.240Z,10.32
2023-08-05T01:07:23.009Z,10.27
2023-08-05T01:09:52.615Z,9.32
2023-08-05T01:12:21.502Z,10.10
2023-08-05T01:14:48.212Z,10.95
2023-08-05T01:17:18.637Z,10.85
2023-08-05T01:19:45.398Z,10.68
2023-08-05T01:22:31.864Z,9.45
2023-08-05T01:25:01.317Z,10.02
2023-08-05T01:27:28.023Z,9.60
2023-08-05T01:29:56.986Z,9.98
2023-08-05T01:32:23.737Z,9.98
2023-08-05T01:34:50.789Z,9.70
2023-08-05T01:37:21.019Z,11.18
2023-08-05T01:39:48.746Z,10.05
2023-08-05T01:42:15.522Z,9.70
2023-08-05T01:44:42.233Z,10.25
2023-08-05T01:47:11.104Z,10.02
2023-08-05T01:49:42.519Z,9.57
2023-08-05T01:52:11.375Z,9.68
2023-08-05T01:54:40.402Z,9.77
2023-08-05T01:57:07.554Z,9.38
2023-08-05T01:59:34.363Z,9.15
2023-08-05T02:02:03.387Z,9.18
2023-08-05T02:04:32.326Z,9.35
2023-08-05T02:06:59.062Z,9.73
2023-08-05T02:09:25.748Z,9.55
2023-08-05T02:11:52.603Z,9.30
2023-08-05T02:14:21.537Z,9.65
2023-08-05T02:16:51.572Z,9.73
2023-08-05T02:19:18.555Z,9.60
2023-08-05T02:21:45.219Z,9.38
2023-08-05T02:24:12.486Z,9.73
2023-08-05T02:26:39.267Z,9.50
2023-08-05T02:29:05.959Z,9.63
2023-08-05T02:31:32.674Z,9.40
2023-08-05T02:34:02.215Z,9.35
2023-08-05T02:36:28.955Z,9.50
2023-08-05T02:38:56.696Z,9.52
2023-08-05T02:41:23.447Z,9.85
2023-08-05T02:43:50.170Z,9.77
2023-08-05T02:46:16.937Z,9.27
2023-08-05T02:48:43.648Z,9.48
2023-08-05T02:51:10.488Z,9.75
2023-08-05T02:53:37.203Z,9.57
2023-08-05T02:56:06.301Z,9.00
2023-08-05T02:58:33.290Z,9.73
2023-08-05T03:01:11.439Z,8.85
2023-08-05T03:03:38.307Z,10.25
2023-08-05T03:06:05.466Z,9.88
2023-08-05T03:08:34.627Z,9.43
2023-08-05T03:11:01.854Z,9.38
2023-08-05T03:13:28.635Z,9.55
2023-08-05T03:15:55.420Z,9.65
2023-08-05T03:18:24.686Z,9.27
2023-08-05T03:20:51.383Z,9.50
2023-08-05T03:23:18.175Z,9.13
2023-08-05T03:25:44.879Z,10.73
2023-08-05T03:28:11.587Z,9.63
2023-08-05T03:30:38.289Z,9.35
2023-08-05T03:33:07.245Z,9.10
2023-08-05T03:35:34.000Z,9.32
2023-08-05T03:38:01.215Z,9.18
2023-08-05T03:40:28.000Z,9.52
2023-08-05T03:42:55.179Z,9.02
2023-08-05T03:45:22.033Z,9.57
2023-08-05T03:47:51.310Z,8.98
2023-08-05T03:50:18.418Z,9.18
2023-08-05T03:52:45.681Z,9.48
2023-08-05T03:55:12.483Z,8.95
2023-08-05T03:57:39.181Z,9.57
2023-08-05T04:00:06.571Z,9.68
2023-08-05T04:02:35.619Z,9.07
2023-08-05T04:05:04.896Z,9.07
2023-08-05T04:07:35.267Z,9.13
2023-08-05T04:10:05.198Z,9.00
2023-08-05T04:12:34.175Z,8.65
2023-08-05T04:15:01.008Z,9.20
2023-08-05T04:17:30.632Z,9.10
2023-08-05T04:19:57.676Z,9.23
2023-08-05T04:22:26.579Z,9.27
2023-08-05T04:24:54.269Z,9.20
2023-08-05T04:27:23.287Z,9.75
2023-08-05T04:29:50.378Z,8.95
2023-08-05T04:32:17.132Z,9.05
2023-08-05T04:34:45.193Z,9.15
2023-08-05T04:37:22.505Z,8.85
2023-08-05T04:39:50.060Z,9.35
2023-08-05T04:42:19.055Z,8.98
2023-08-05T04:44:46.954Z,9.85
2023-08-05T04:47:13.785Z,9.20
2023-08-05T04:49:42.666Z,17.73
2023-08-05T04:52:09.512Z,9.32
2023-08-05T04:54:43.000Z,8.88
2023-08-05T04:57:09.789Z,9.13
2023-08-05T04:59:36.519Z,9.70
2023-08-05T05:02:06.478Z,9.05
2023-08-05T05:04:33.228Z,8.27
2023-08-05T05:07:02.098Z,11.13
2023-08-05T05:09:33.582Z,8.25
2023-08-05T05:12:01.446Z,10.30
2023-08-05T05:14:28.149Z,9.25
2023-08-05T05:16:54.942Z,9.30
2023-08-05T05:19:21.719Z,8.80
2023-08-05T05:21:51.676Z,8.95
2023-08-05T05:24:19.291Z,8.73
2023-08-05T05:26:46.057Z,12.43
2023-08-05T05:29:15.038Z,9.90
2023-08-05T05:31:41.805Z,10.38
2023-08-05T05:34:08.849Z,9.07
2023-08-05T05:36:40.272Z,9.35
2023-08-05T05:39:09.574Z,11.15
2023-08-05T05:41:36.562Z,10.05
2023-08-05T05:44:05.329Z,9.02
2023-08-05T05:46:35.119Z,8.57
2023-08-05T05:49:02.616Z,8.80
2023-08-05T05:51:31.880Z,8.60
2023-08-05T05:54:01.019Z,8.18
2023-08-05T05:56:30.028Z,8.85
2023-08-05T05:58:56.768Z,9.32
2023-08-05T06:01:24.727Z,10.00
2023-08-05T06:03:54.353Z,8.93
2023-08-05T06:06:21.519Z,8.95
2023-08-05T06:08:48.311Z,11.20
2023-08-05T06:11:15.372Z,9.32
2023-08-05T06:13:44.359Z,12.10
2023-08-05T06:16:13.439Z,9.13
2023-08-05T06:18:42.332Z,9.13
2023-08-05T06:21:09.130Z,9.40
2023-08-05T06:23:35.910Z,10.20
2023-08-05T06:26:02.687Z,9.82
2023-08-05T06:28:29.388Z,9.27
2023-08-05T06:30:56.680Z,10.18
2023-08-05T06:33:25.849Z,10.20
2023-08-05T06:35:52.581Z,9.73
2023-08-05T06:38:19.425Z,9.63
2023-08-05T06:40:49.631Z,9.35
2023-08-05T06:43:16.641Z,10.47
2023-08-05T06:45:45.523Z,9.52
2023-08-05T06:48:12.206Z,9.98
2023-08-05T06:50:38.987Z,10.50
2023-08-05T06:53:05.857Z,23.65
2023-08-05T06:55:32.621Z,41.80
2023-08-05T06:57:59.409Z,39.72
2023-08-05T07:00:28.833Z,31.67
2023-08-05T07:02:55.638Z,34.65
2023-08-05T07:05:22.408Z,37.53
2023-08-05T07:07:52.203Z,37.83
2023-08-05T07:12:46.676Z,32.05
2023-08-05T07:15:13.457Z,29.13
2023-08-05T07:17:40.305Z,25.35
2023-08-05T07:20:07.971Z,20.27
2023-08-05T07:22:36.205Z,15.75
2023-08-05T07:25:05.431Z,20.52
2023-08-05T07:27:34.418Z,16.60
2023-08-05T07:30:03.403Z,26.25
2023-08-05T07:32:31.543Z,15.07
2023-08-05T07:35:00.754Z,19.52
2023-08-05T07:37:27.909Z,15.35
2023-08-05T07:39:54.681Z,15.07
2023-08-05T07:42:23.992Z,18.13
2023-08-05T07:44:53.543Z,15.75
2023-08-05T07:47:20.533Z,16.50
2023-08-05T07:49:47.366Z,13.07
2023-08-05T07:52:15.839Z,12.55
2023-08-05T07:54:46.792Z,12.88
2023-08-05T07:57:15.689Z,11.70
2023-08-05T07:59:42.410Z,12.20
2023-08-05T08:02:11.509Z,12.38
2023-08-05T08:04:38.324Z,11.27
2023-08-05T08:07:06.044Z,11.43
2023-08-05T08:09:33.124Z,12.02
2023-08-05T08:11:59.959Z,10.48
2023-08-05T08:14:29.033Z,10.98
2023-08-05T08:16:55.875Z,10.77
2023-08-05T08:19:24.246Z,10.73
2023-08-05T08:21:51.294Z,11.00
2023-08-05T08:24:21.818Z,11.35
2023-08-05T08:26:52.423Z,11.15
2023-08-05T08:29:21.507Z,10.70
2023-08-05T08:31:48.286Z,11.07
2023-08-05T08:34:15.093Z,10.55
2023-08-05T08:36:44.423Z,10.75
2023-08-05T08:39:11.245Z,14.43
2023-08-05T08:41:42.793Z,10.27
2023-08-05T08:44:12.431Z,11.05
2023-08-05T08:46:41.378Z,10.50
2023-08-05T08:49:08.482Z,10.60
2023-08-05T08:51:35.196Z,10.05
2023-08-05T08:54:04.690Z,10.15
2023-08-05T08:56:33.321Z,10.27
2023-08-05T08:59:02.212Z,11.13
2023-08-05T09:01:29.035Z,10.95
2023-08-05T09:03:58.032Z,10.80
2023-08-05T09:06:25.083Z,11.55
2023-08-05T09:08:54.154Z,11.80
2023-08-05T09:11:20.955Z,11.80
2023-08-05T09:13:47.705Z,11.30
2023-08-05T09:16:19.736Z,11.02
2023-08-05T09:19:00.170Z,11.40
2023-08-05T09:21:30.321Z,11.52
2023-08-05T09:23:59.795Z,12.47
2023-08-05T09:26:30.286Z,11.82
2023-08-05T09:28:57.554Z,12.23
2023-08-05T09:31:24.429Z,12.40
2023-08-05T09:33:51.197Z,13.27
2023-08-05T09:36:18.475Z,13.07
2023-08-05T09:38:46.352Z,12.07
2023-08-05T09:41:13.121Z,12.77
2023-08-05T09:43:46.885Z,12.35
2023-08-05T09:46:13.698Z,11.73
2023-08-05T09:48:44.338Z,12.23
2023-08-05T09:51:20.033Z,13.13
2023-08-05T09:53:50.653Z,12.05
2023-08-05T09:56:21.653Z,12.48
2023-08-05T09:58:49.473Z,12.27
2023-08-05T10:01:16.251Z,12.07
2023-08-05T10:03:43.043Z,12.20
2023-08-05T10:06:10.349Z,12.65
2023-08-05T10:08:37.680Z,12.13
2023-08-05T10:11:05.234Z,12.70
2023-08-05T10:13:37.337Z,12.75
2023-08-05T10:16:04.289Z,12.60
2023-08-05T10:18:30.995Z,12.13
2023-08-05T10:20:57.840Z,11.43
2023-08-05T10:23:29.853Z,12.60
2023-08-05T10:26:00.888Z,11.82
2023-08-05T10:28:27.640Z,11.70
2023-08-05T10:30:57.634Z,11.63
2023-08-05T10:33:27.001Z,10.90
2023-08-05T10:36:01.852Z,11.27
2023-08-05T10:38:29.117Z,11.68
2023-08-05T10:41:05.785Z,12.73
2023-08-05T10:43:32.713Z,11.20
2023-08-05T10:46:08.876Z,12.05
2023-08-05T10:48:51.343Z,11.45
2023-08-05T10:51:26.277Z,10.68
2023-08-05T10:53:52.989Z,11.32
2023-08-05T10:56:19.813Z,10.98
2023-08-05T10:58:52.971Z,13.32
2023-08-05T11:01:19.840Z,11.50
2023-08-05T11:03:51.706Z,11.60
2023-08-05T11:06:25.563Z,11.18
2023-08-05T11:08:52.447Z,11.00
2023-08-05T11:11:20.109Z,12.52
2023-08-05T11:13:47.976Z,11.60
2023-08-05T11:16:18.322Z,11.38
2023-08-05T11:18:57.044Z,11.82
2023-08-05T11:21:23.954Z,11.73
2023-08-05T11:23:50.700Z,11.88
2023-08-05T11:26:20.990Z,11.30
2023-08-05T11:28:47.845Z,11.90
2023-08-05T11:31:24.727Z,10.90
2023-08-05T11:33:52.353Z,11.45
2023-08-05T11:36:29.215Z,10.82
2023-08-05T11:39:02.020Z,11.25
2023-08-05T11:41:28.915Z,12.10
2023-08-05T11:43:56.028Z,11.23
2023-08-05T11:46:31.031Z,10.88
2023-08-05T11:49:10.831Z,11.93
2023-08-05T11:51:54.563Z,11.23
2023-08-05T11:54:33.224Z,11.80
2023-08-05T11:57:00.138Z,11.18
2023-08-05T11:59:49.619Z,11.20
2023-08-05T12:02:17.574Z,11.25
2023-08-05T12:04:48.871Z,10.88
2023-08-05T12:07:19.707Z,11.30
2023-08-05T12:12:18.069Z,10.85
2023-08-05T12:14:45.079Z,11.05
2023-08-05T12:17:11.971Z,11.50
2023-08-05T12:19:42.866Z,11.63
2023-08-05T12:24:36.290Z,10.25
2023-08-05T12:27:03.111Z,10.57
2023-08-05T12:29:32.072Z,10.63
2023-08-05T12:31:58.982Z,11.02
2023-08-05T12:34:25.640Z,11.27
2023-08-05T12:36:52.315Z,10.90
2023-08-05T12:39:19.175Z,10.60
2023-08-05T12:41:46.119Z,10.88
2023-08-05T12:44:15.042Z,10.77
2023-08-05T12:46:41.762Z,10.77
2023-08-05T12:49:08.426Z,11.57
2023-08-05T12:51:35.260Z,10.98
2023-08-05T12:54:01.962Z,10.43
2023-08-05T12:56:28.681Z,10.20
2023-08-05T12:58:55.445Z,11.35
2023-08-05T13:01:22.172Z,11.00
2023-08-05T13:03:48.965Z,11.13
2023-08-05T13:06:15.750Z,11.07
2023-08-05T13:08:42.579Z,11.05
2023-08-05T13:11:09.269Z,10.90
2023-08-05T13:13:36.014Z,10.93
2023-08-05T13:16:02.887Z,11.27
2023-08-05T13:18:31.738Z,11.13
2023-08-05T13:20:58.406Z,12.00
2023-08-05T13:23:27.442Z,11.27
2023-08-05T13:25:54.132Z,11.13
2023-08-05T13:28:20.810Z,11.18
2023-08-05T13:30:47.645Z,10.98
2023-08-05T13:33:14.300Z,10.40
2023-08-05T13:35:41.100Z,10.43
2023-08-05T13:38:07.947Z,10.75
2023-08-05T13:40:36.826Z,10.45
2023-08-05T13:43:03.536Z,11.18
2023-08-05T13:45:30.313Z,9.88
2023-08-05T13:47:56.984Z,9.98
2023-08-05T13:50:24.288Z,9.75
2023-08-05T13:52:54.167Z,10.20
2023-08-05T13:55:20.907Z,9.75
2023-08-05T13:57:48.902Z,10.27
2023-08-05T14:00:17.204Z,9.82
2023-08-05T14:02:44.114Z,9.70
2023-08-05T14:05:11.069Z,9.13
2023-08-05T14:07:37.779Z,9.20
2023-08-05T14:10:07.275Z,9.10
2023-08-05T14:12:33.954Z,9.85
2023-08-05T14:15:01.204Z,9.60
2023-08-05T14:17:28.004Z,9.02
2023-08-05T14:19:57.004Z,9.18
2023-08-05T14:22:23.771Z,9.52
2023-08-05T14:24:50.470Z,9.77
2023-08-05T14:27:17.142Z,8.80
2023-08-05T14:29:43.813Z,8.35
2023-08-05T14:32:10.733Z,8.50
2023-08-05T14:34:37.470Z,9.05
2023-08-05T14:37:04.499Z,8.70
2023-08-05T14:39:32.240Z,8.73
2023-08-05T14:41:59.124Z,8.45
2023-08-05T14:44:25.830Z,8.70
2023-08-05T14:46:52.559Z,8.85
2023-08-05T14:49:19.308Z,8.07
2023-08-05T14:51:46.073Z,8.50
2023-08-05T14:54:14.920Z,8.90
2023-08-05T14:56:43.049Z,8.07
2023-08-05T14:59:11.306Z,8.40
2023-08-05T15:01:38.332Z,8.68
2023-08-05T15:04:05.237Z,8.43
2023-08-05T15:06:34.214Z,8.55
2023-08-05T15:09:03.273Z,8.70
2023-08-05T15:11:30.576Z,8.27
2023-08-05T15:13:57.274Z,7.95
2023-08-05T15:16:24.060Z,8.00
2023-08-05T15:18:50.816Z,8.73
2023-08-05T15:21:17.518Z,8.30
2023-08-05T15:23:44.254Z,7.95
2023-08-05T15:26:10.977Z,8.15
2023-08-05T15:28:37.701Z,8.85
2023-08-05T15:31:04.513Z,8.35
2023-08-05T15:33:31.342Z,8.90
2023-08-05T15:36:00.221Z,8.65
2023-08-05T15:38:26.912Z,8.00
2023-08-05T15:41:00.347Z,8.27
2023-08-05T15:43:29.321Z,8.60
2023-08-05T15:45:59.821Z,8.90
2023-08-05T15:48:28.816Z,8.27
2023-08-05T15:50:59.757Z,8.88
2023-08-05T15:53:26.489Z,8.70
2023-08-05T15:56:02.209Z,9.02
2023-08-05T15:58:32.313Z,8.90
2023-08-05T16:01:02.513Z,8.70
2023-08-05T16:03:29.367Z,8.82
2023-08-05T16:06:09.474Z,9.40
2023-08-05T16:08:38.472Z,9.00
2023-08-05T16:11:09.459Z,9.10
2023-08-05T16:13:38.364Z,9.35
2023-08-05T16:16:23.222Z,9.20
2023-08-05T16:18:49.982Z,9.43
2023-08-05T16:21:24.035Z,10.07
2023-08-05T16:23:58.642Z,9.10
2023-08-05T16:26:26.181Z,9.15
2023-08-05T16:28:53.557Z,9.70
2023-08-05T16:31:25.141Z,9.48
2023-08-05T16:33:54.430Z,9.75
2023-08-05T16:36:23.405Z,10.00
2023-08-05T16:38:52.850Z,9.18
2023-08-05T16:41:19.751Z,9.60
2023-08-05T16:43:46.507Z,10.40
2023-08-05T16:46:13.596Z,10.27
2023-08-05T16:48:40.376Z,10.15
2023-08-05T16:51:07.122Z,10.38
2023-08-05T16:53:34.509Z,10.13
2023-08-05T16:56:05.253Z,11.25
2023-08-05T16:58:32.285Z,10.18
2023-08-05T17:00:59.150Z,11.05
2023-08-05T17:03:25.973Z,10.23
2023-08-05T17:05:53.645Z,10.63
2023-08-05T17:08:20.964Z,11.00
2023-08-05T17:10:47.817Z,11.15
2023-08-05T17:13:19.293Z,11.18
2023-08-05T17:15:46.354Z,11.20
2023-08-05T17:18:13.723Z,10.70
2023-08-05T17:20:40.775Z,11.57
2023-08-05T17:23:11.320Z,10.52
2023-08-05T17:25:41.860Z,10.88
2023-08-05T17:28:09.199Z,10.45
2023-08-05T17:30:36.126Z,10.75
2023-08-05T17:33:03.275Z,11.45
2023-08-05T17:35:31.348Z,11.05
2023-08-05T17:37:59.349Z,11.30
2023-08-05T17:40:26.631Z,11.50
2023-08-05T17:42:53.363Z,11.27
2023-08-05T17:45:20.074Z,10.65
2023-08-05T17:47:46.978Z,10.32
2023-08-05T17:50:13.850Z,10.63
2023-08-05T17:52:42.727Z,11.25
2023-08-05T17:55:12.206Z,10.85
2023-08-05T17:57:38.935Z,10.90
2023-08-05T18:00:06.312Z,11.82
2023-08-05T18:02:33.159Z,11.35
2023-08-05T18:04:59.894Z,10.95
2023-08-05T18:07:26.695Z,10.50
2023-08-05T18:09:53.489Z,10.77
2023-08-05T18:12:20.206Z,11.93
2023-08-05T18:14:49.200Z,11.10
2023-08-05T18:17:16.311Z,11.48
2023-08-05T18:19:43.107Z,12.35
2023-08-05T18:22:09.979Z,11.27
2023-08-05T18:24:36.696Z,11.07
2023-08-05T18:27:03.695Z,11.90
2023-08-05T18:29:32.620Z,11.43
2023-08-05T18:32:00.093Z,11.70
2023-08-05T18:34:26.867Z,11.85
2023-08-05T18:36:53.550Z,11.20
2023-08-05T18:39:22.432Z,11.63
2023-08-05T18:41:51.701Z,13.30
2023-08-05T18:44:18.829Z,13.10
2023-08-05T18:46:48.403Z,12.55
2023-08-05T18:49:15.094Z,12.30
2023-08-05T18:51:42.029Z,12.98
2023-08-05T18:54:08.973Z,13.30
2023-08-05T18:56:37.983Z,15.32
2023-08-05T18:59:04.765Z,24.77
2023-08-05T19:01:31.647Z,19.27
2023-08-05T19:03:58.498Z,19.27
2023-08-05T19:06:25.867Z,19.33
2023-08-05T19:08:54.709Z,18.50
2023-08-05T19:11:21.432Z,16.00
2023-08-05T19:13:48.195Z,11.38
2023-08-05T19:16:17.097Z,10.38
2023-08-05T19:18:43.853Z,11.38
2023-08-05T19:21:13.316Z,9.48
2023-08-05T19:23:58.919Z,13.15
2023-08-05T19:26:25.692Z,6.30
2023-08-05T19:28:52.496Z,10.70
2023-08-05T19:31:19.318Z,47.88
2023-08-05T19:33:46.536Z,51.05
2023-08-05T19:36:17.204Z,24.95
2023-08-05T19:38:44.926Z,16.38
2023-08-05T19:41:16.016Z,12.80
2023-08-05T19:43:43.209Z,12.38
2023-08-05T19:46:15.794Z,9.68
2023-08-05T19:48:45.423Z,12.05
2023-08-05T19:51:14.565Z,6.72
2023-08-05T19:53:46.450Z,7.90
2023-08-05T19:56:13.377Z,8.55
2023-08-05T19:58:40.139Z,6.28
2023-08-05T20:01:08.064Z,9.43
2023-08-05T20:03:36.754Z,12.95
2023-08-05T20:06:03.624Z,10.23
2023-08-05T20:08:30.451Z,6.45
2023-08-05T20:10:57.200Z,10.50
2023-08-05T20:13:26.242Z,6.45
2023-08-05T20:15:59.813Z,6.60
2023-08-05T20:18:27.015Z,5.60
2023-08-05T20:20:53.857Z,4.93
2023-08-05T20:23:23.467Z,5.22
2023-08-05T20:25:52.391Z,7.30
2023-08-05T20:28:21.511Z,7.05
2023-08-05T20:30:53.916Z,6.75
2023-08-05T20:33:20.725Z,6.10
2023-08-05T20:35:47.440Z,4.30
2023-08-05T20:38:14.088Z,5.97
2023-08-05T20:40:40.851Z,6.55
2023-08-05T20:43:08.992Z,4.68
2023-08-05T20:45:38.874Z,4.60
2023-08-05T20:48:08.838Z,4.88
2023-08-05T20:50:35.626Z,3.93
2023-08-05T20:53:02.566Z,4.47
2023-08-05T20:55:29.393Z,4.43
2023-08-05T20:57:56.132Z,4.70
2023-08-05T21:00:22.911Z,4.82
2023-08-05T21:02:49.734Z,6.28
2023-08-05T21:05:19.691Z,6.70
2023-08-05T21:07:46.861Z,4.72
2023-08-05T21:10:13.664Z,3.78
2023-08-05T21:12:40.900Z,4.03
2023-08-05T21:15:08.083Z,4.20
2023-08-05T21:17:35.290Z,7.53
2023-08-05T21:20:02.200Z,15.55
2023-08-05T21:22:36.173Z,7.15
2023-08-05T21:25:03.617Z,8.82
2023-08-05T21:27:30.381Z,4.45
2023-08-05T21:29:57.125Z,6.05
2023-08-05T21:32:23.902Z,4.85
2023-08-05T21:34:50.674Z,4.43
2023-08-05T21:37:17.450Z,5.45
2023-08-05T21:39:47.050Z,4.57
2023-08-05T21:42:13.854Z,6.43
2023-08-05T21:44:40.596Z,4.32
2023-08-05T21:47:07.320Z,6.30
2023-08-05T21:49:36.381Z,5.75
2023-08-05T21:52:05.369Z,4.68
2023-08-05T21:54:32.248Z,4.18
2023-08-05T21:56:59.188Z,5.05
2023-08-05T21:59:26.337Z,3.53
2023-08-05T22:01:55.286Z,4.10
2023-08-05T22:04:24.925Z,7.25
2023-08-05T22:06:53.944Z,3.97
2023-08-05T22:09:23.019Z,4.80
2023-08-05T22:11:52.268Z,4.00
2023-08-05T22:14:19.066Z,7.20
2023-08-05T22:16:47.983Z,8.95
2023-08-05T22:19:14.756Z,9.45
2023-08-05T22:21:41.531Z,8.13
2023-08-05T22:24:08.315Z,6.60
2023-08-05T22:26:37.171Z,6.57
2023-08-05T22:29:04.204Z,6.53
2023-08-05T22:31:30.957Z,6.80
2023-08-05T22:33:57.684Z,8.98
2023-08-05T22:36:24.436Z,8.13
2023-08-05T22:38:51.219Z,8.25
2023-08-05T22:41:18.417Z,6.50
2023-08-05T22:43:47.317Z,6.00
2023-08-05T22:46:14.264Z,5.63
2023-08-05T22:48:40.997Z,5.70
2023-08-05T22:51:08.279Z,5.78
2023-08-05T22:53:34.962Z,7.55
2023-08-05T22:56:04.893Z,7.90
2023-08-05T22:58:31.729Z,5.40
2023-08-05T23:01:05.174Z,6.22
2023-08-05T23:03:32.006Z,5.32
2023-08-05T23:05:58.942Z,7.03
2023-08-05T23:08:28.001Z,6.30
2023-08-05T23:10:56.960Z,6.75
2023-08-05T23:13:23.787Z,4.55
2023-08-05T23:15:50.619Z,4.35
2023-08-05T23:18:17.338Z,6.60
2023-08-05T23:20:44.090Z,4.50
2023-08-05T23:23:10.804Z,6.20
2023-08-05T23:25:38.115Z,4.95
2023-08-05T23:28:04.918Z,6.47
2023-08-05T23:30:34.291Z,6.43
2023-08-05T23:33:01.356Z,5.35
2023-08-05T23:35:30.224Z,6.45
2023-08-05T23:37:57.396Z,6.30
2023-08-05T23:40:24.561Z,6.40
2023-08-05T23:42:51.229Z,8.07
2023-08-05T23:45:18.200Z,7.15
2023-08-05T23:47:47.092Z,5.22
2023-08-05T23:50:13.928Z,6.55
2023-08-05T23:52:43.616Z,7.55
2023-08-05T23:55:10.409Z,7.53
2023-08-05T23:57:37.734Z,7.78
